createdAt,value
2023-01-29T00:00:46.858Z,101790.84
2023-01-29T00:01:49.447Z,101767.91
2023-01-29T00:02:53.301Z,101770.09
2023-01-29T00:03:54.795Z,101778.59
2023-01-29T00:04:59.032Z,101772.41
2023-01-29T00:06:04.687Z,101789.97
2023-01-29T00:07:07.179Z,101769.09
2023-01-29T00:08:08.657Z,101787.97
2023-01-29T00:09:11.484Z,101774.28
2023-01-29T00:10:13.622Z,101785.13
2023-01-29T00:11:16.656Z,101774.94
2023-01-29T00:12:18.347Z,101757.19
2023-01-29T00:13:20.870Z,101781.75
2023-01-29T00:14:23.302Z,101759.56
2023-01-29T00:15:24.828Z,101760.38
2023-01-29T00:16:27.364Z,101779.25
2023-01-29T00:17:28.922Z,101782.31
2023-01-29T00:18:33.191Z,101774.94
2023-01-29T00:19:35.613Z,101761.03
2023-01-29T00:20:38.030Z,101772.09
2023-01-29T00:21:39.538Z,101750.75
2023-01-29T00:23:43.973Z,101747.94
2023-01-29T00:24:46.412Z,101770.25
2023-01-29T00:25:48.399Z,101753.38
2023-01-29T00:26:51.075Z,101760.88
2023-01-29T00:27:52.566Z,101748.31
2023-01-29T00:28:56.972Z,101766.56
2023-01-29T00:30:11.993Z,101744.00
2023-01-29T00:31:16.516Z,101765.22
2023-01-29T00:32:18.144Z,101764.91
2023-01-29T00:33:20.690Z,101766.22
2023-01-29T00:34:23.614Z,101726.09
2023-01-29T00:35:26.106Z,101752.50
2023-01-29T00:36:28.176Z,101765.88
2023-01-29T00:37:31.045Z,101756.03
2023-01-29T00:38:33.116Z,101759.06
2023-01-29T00:39:47.395Z,101741.50
2023-01-29T00:41:08.431Z,101761.06
2023-01-29T00:42:28.315Z,101760.22
2023-01-29T00:43:48.417Z,101757.53
2023-01-29T00:44:59.838Z,101769.38
2023-01-29T00:46:01.348Z,101755.25
2023-01-29T00:47:04.288Z,101768.19
2023-01-29T00:48:06.605Z,101768.75
2023-01-29T00:49:10.043Z,101763.41
2023-01-29T00:50:13.328Z,101774.44
2023-01-29T00:51:16.712Z,101753.88
2023-01-29T00:52:24.013Z,101769.72
2023-01-29T00:53:26.482Z,101771.88
2023-01-29T00:54:28.292Z,101761.66
2023-01-29T00:55:30.806Z,101752.28
2023-01-29T00:56:33.899Z,101758.84
2023-01-29T00:57:36.903Z,101755.22
2023-01-29T00:58:38.400Z,101754.50
2023-01-29T00:59:41.092Z,101736.75
2023-01-29T01:00:42.674Z,101704.38
2023-01-29T01:02:03.122Z,101720.59
2023-01-29T01:03:08.798Z,101752.53
2023-01-29T01:04:12.073Z,101735.63
2023-01-29T01:05:19.054Z,101746.00
2023-01-29T01:06:20.571Z,101743.50
2023-01-29T01:07:23.022Z,101751.50
2023-01-29T01:08:43.314Z,101737.47
2023-01-29T01:10:03.781Z,101744.81
2023-01-29T01:11:07.512Z,101744.63
2023-01-29T01:12:09.160Z,101731.81
2023-01-29T01:13:12.512Z,101747.19
2023-01-29T01:14:14.280Z,101744.19
2023-01-29T01:15:17.142Z,101743.50
2023-01-29T01:16:18.920Z,101741.50
2023-01-29T01:17:21.424Z,101742.00
2023-01-29T01:18:23.927Z,101737.66
2023-01-29T01:19:25.452Z,101740.00
2023-01-29T01:20:31.003Z,101748.84
2023-01-29T01:21:33.211Z,101712.44
2023-01-29T01:22:35.795Z,101738.84
2023-01-29T01:23:37.651Z,101746.19
2023-01-29T01:24:40.201Z,101746.34
2023-01-29T01:25:41.709Z,101747.66
2023-01-29T01:26:44.152Z,101751.69
2023-01-29T01:27:46.399Z,101720.63
2023-01-29T01:28:49.055Z,101746.34
2023-01-29T01:29:50.574Z,101741.34
2023-01-29T01:30:53.334Z,101737.66
2023-01-29T01:31:55.108Z,101735.13
2023-01-29T01:32:58.002Z,101725.13
2023-01-29T01:33:59.588Z,101726.94
2023-01-29T01:35:02.010Z,101725.94
2023-01-29T01:36:09.454Z,101707.53
2023-01-29T01:37:11.914Z,101722.59
2023-01-29T01:38:13.377Z,101727.28
2023-01-29T01:39:15.940Z,101723.09
2023-01-29T01:40:20.376Z,101713.25
2023-01-29T01:41:24.226Z,101719.38
2023-01-29T01:42:30.045Z,101690.50
2023-01-29T01:43:49.241Z,101697.72
2023-01-29T01:44:54.070Z,101682.31
2023-01-29T01:45:56.571Z,101713.41
2023-01-29T01:47:01.721Z,101717.75
2023-01-29T01:48:08.367Z,101709.75
2023-01-29T01:49:15.337Z,101705.75
2023-01-29T01:50:22.539Z,101709.09
2023-01-29T01:51:28.656Z,101701.69
2023-01-29T01:52:33.943Z,101706.69
2023-01-29T01:53:42.099Z,101708.84
2023-01-29T01:54:45.363Z,101722.03
2023-01-29T01:55:51.872Z,101687.88
2023-01-29T01:57:05.013Z,101716.59
2023-01-29T01:58:11.635Z,101702.25
2023-01-29T01:59:16.704Z,101709.66
2023-01-29T02:00:22.399Z,101719.50
2023-01-29T02:01:27.842Z,101714.53
2023-01-29T02:02:48.072Z,101694.91
2023-01-29T02:04:13.447Z,101713.56
2023-01-29T02:05:33.844Z,101722.25
2023-01-29T02:06:59.472Z,101726.25
2023-01-29T02:08:19.757Z,101725.09
2023-01-29T02:09:32.601Z,101722.97
2023-01-29T02:10:39.233Z,101732.91
2023-01-29T02:11:41.908Z,101708.38
2023-01-29T02:12:45.418Z,101713.06
2023-01-29T02:13:53.485Z,101727.13
2023-01-29T02:14:56.495Z,101719.13
2023-01-29T02:15:58.059Z,101729.81
2023-01-29T02:17:01.848Z,101729.16
2023-01-29T02:18:03.763Z,101717.28
2023-01-29T02:19:12.376Z,101687.03
2023-01-29T02:20:24.230Z,101722.09
2023-01-29T02:21:51.526Z,101714.44
2023-01-29T02:23:16.873Z,101727.81
2023-01-29T02:24:50.005Z,101721.94
2023-01-29T02:26:17.779Z,101728.28
2023-01-29T02:27:22.074Z,101702.66
2023-01-29T02:28:33.707Z,101723.44
2023-01-29T02:29:49.423Z,101708.41
2023-01-29T02:30:58.887Z,101712.03
2023-01-29T02:32:14.315Z,101726.53
2023-01-29T02:33:27.237Z,101707.69
2023-01-29T02:34:59.534Z,101708.50
2023-01-29T02:36:14.775Z,101709.16
2023-01-29T02:37:16.562Z,101694.22
2023-01-29T02:38:27.021Z,101681.81
2023-01-29T02:39:35.595Z,101707.25
2023-01-29T02:40:44.514Z,101709.00
2023-01-29T02:41:55.013Z,101686.50
2023-01-29T02:43:07.492Z,101715.94
2023-01-29T02:44:23.095Z,101701.13
2023-01-29T02:45:33.004Z,101708.41
2023-01-29T02:46:40.040Z,101735.66
2023-01-29T02:47:47.870Z,101737.47
2023-01-29T02:48:56.619Z,101740.78
2023-01-29T02:50:03.961Z,101736.06
2023-01-29T02:51:11.558Z,101740.50
2023-01-29T02:52:21.004Z,101709.59
2023-01-29T02:53:28.359Z,101702.34
2023-01-29T02:54:40.368Z,101725.13
2023-01-29T02:55:47.026Z,101710.81
2023-01-29T02:56:54.907Z,101726.94
2023-01-29T02:58:01.298Z,101705.91
2023-01-29T02:59:08.906Z,101720.97
2023-01-29T03:00:16.502Z,101722.91
2023-01-29T03:01:30.533Z,101721.78
2023-01-29T03:02:38.036Z,101704.06
2023-01-29T03:03:44.721Z,101697.88
2023-01-29T03:04:53.113Z,101704.56
2023-01-29T03:06:06.411Z,101718.69
2023-01-29T03:07:22.486Z,101709.38
2023-01-29T03:08:42.812Z,101676.63
2023-01-29T03:09:51.312Z,101695.03
2023-01-29T03:10:59.851Z,101709.91
2023-01-29T03:12:20.169Z,101706.38
2023-01-29T03:13:29.659Z,101692.72
2023-01-29T03:15:02.307Z,101704.44
2023-01-29T03:16:13.031Z,101690.22
2023-01-29T03:17:14.884Z,101706.25
2023-01-29T03:18:22.699Z,101701.56
2023-01-29T03:19:34.485Z,101680.56
2023-01-29T03:20:47.931Z,101685.59
2023-01-29T03:21:59.157Z,101700.59
2023-01-29T03:23:08.002Z,101688.06
2023-01-29T03:24:32.150Z,101687.22
2023-01-29T03:25:54.800Z,101693.97
2023-01-29T03:27:16.678Z,101690.59
2023-01-29T03:28:38.514Z,101691.13
2023-01-29T03:30:01.083Z,101697.69
2023-01-29T03:31:26.994Z,101691.28
2023-01-29T03:32:36.056Z,101656.13
2023-01-29T03:33:44.606Z,101686.94
2023-01-29T03:34:52.053Z,101683.69
2023-01-29T03:36:00.882Z,101681.41
2023-01-29T03:37:09.451Z,101692.47
2023-01-29T03:38:11.983Z,101698.97
2023-01-29T03:39:16.620Z,101692.28
2023-01-29T03:40:18.624Z,101697.47
2023-01-29T03:41:29.817Z,101663.78
2023-01-29T03:42:44.142Z,101691.47
2023-01-29T03:43:56.000Z,101679.75
2023-01-29T03:45:06.131Z,101685.63
2023-01-29T03:46:19.219Z,101677.22
2023-01-29T03:47:24.988Z,101681.78
2023-01-29T03:48:35.065Z,101680.28
2023-01-29T03:49:52.059Z,101699.50
2023-01-29T03:51:00.172Z,101681.00
2023-01-29T03:52:09.332Z,101684.16
2023-01-29T03:53:22.325Z,101700.19
2023-01-29T03:54:30.077Z,101685.16
2023-01-29T03:55:39.768Z,101703.06
2023-01-29T03:56:54.154Z,101693.03
2023-01-29T03:58:02.217Z,101689.19
2023-01-29T03:59:15.209Z,101679.00
2023-01-29T04:00:22.887Z,101699.22
2023-01-29T04:01:31.791Z,101700.19
2023-01-29T04:02:40.568Z,101697.53
2023-01-29T04:03:48.976Z,101675.81
2023-01-29T04:04:53.495Z,101660.94
2023-01-29T04:05:58.416Z,101679.31
2023-01-29T04:07:06.138Z,101704.06
2023-01-29T04:08:15.087Z,101695.03
2023-01-29T04:09:22.579Z,101678.78
2023-01-29T04:10:27.664Z,101666.09
2023-01-29T04:11:30.751Z,101677.66
2023-01-29T04:12:41.374Z,101690.16
2023-01-29T04:13:44.932Z,101679.00
2023-01-29T04:14:48.661Z,101694.69
2023-01-29T04:15:57.076Z,101699.38
2023-01-29T04:17:03.495Z,101695.69
2023-01-29T04:18:06.496Z,101696.19
2023-01-29T04:19:12.907Z,101687.69
2023-01-29T04:20:15.851Z,101693.03
2023-01-29T04:21:18.561Z,101663.59
2023-01-29T04:22:27.243Z,101682.66
2023-01-29T04:23:28.960Z,101658.91
2023-01-29T04:24:32.376Z,101671.94
2023-01-29T04:25:43.053Z,101675.78
2023-01-29T04:26:59.721Z,101685.13
2023-01-29T04:28:08.649Z,101671.91
2023-01-29T04:29:22.794Z,101669.00
2023-01-29T04:30:33.569Z,101669.59
2023-01-29T04:31:40.709Z,101675.06
2023-01-29T04:32:57.742Z,101639.41
2023-01-29T04:34:08.450Z,101662.16
2023-01-29T04:35:23.961Z,101660.09
2023-01-29T04:36:35.016Z,101650.22
2023-01-29T04:37:42.284Z,101651.59
2023-01-29T04:38:59.142Z,101644.56
2023-01-29T04:40:12.376Z,101664.94
2023-01-29T04:41:21.973Z,101653.91
2023-01-29T04:42:31.165Z,101659.59
2023-01-29T04:43:43.226Z,101655.69
2023-01-29T04:44:54.460Z,101644.88
2023-01-29T04:46:12.884Z,101652.66
2023-01-29T04:47:21.910Z,101657.53
2023-01-29T04:48:29.779Z,101646.34
2023-01-29T04:49:39.995Z,101652.50
2023-01-29T04:50:48.863Z,101652.53
2023-01-29T04:51:58.498Z,101637.00
2023-01-29T04:53:08.074Z,101626.66
2023-01-29T04:54:15.739Z,101649.03
2023-01-29T04:55:22.550Z,101645.66
2023-01-29T04:56:30.197Z,101633.16
2023-01-29T04:57:48.204Z,101641.22
2023-01-29T04:58:55.157Z,101622.34
2023-01-29T05:00:04.023Z,101647.88
2023-01-29T05:01:09.694Z,101639.56
2023-01-29T05:02:13.972Z,101649.38
2023-01-29T05:03:16.854Z,101646.53
2023-01-29T05:04:21.888Z,101638.72
2023-01-29T05:05:23.544Z,101633.19
2023-01-29T05:06:27.160Z,101644.53
2023-01-29T05:07:31.212Z,101638.22
2023-01-29T05:08:35.053Z,101643.88
2023-01-29T05:09:38.910Z,101638.06
2023-01-29T05:10:42.402Z,101639.72
2023-01-29T05:11:48.905Z,101635.84
2023-01-29T05:12:56.794Z,101602.78
2023-01-29T05:13:59.705Z,101623.50
2023-01-29T05:15:05.415Z,101622.50
2023-01-29T05:16:14.414Z,101629.19
2023-01-29T05:17:19.471Z,101626.50
2023-01-29T05:18:22.241Z,101628.25
2023-01-29T05:19:25.194Z,101621.34
2023-01-29T05:20:27.841Z,101623.75
2023-01-29T05:21:29.730Z,101613.13
2023-01-29T05:22:32.693Z,101609.13
2023-01-29T05:23:34.467Z,101622.69
2023-01-29T05:24:37.118Z,101615.66
2023-01-29T05:25:39.124Z,101596.13
2023-01-29T05:27:00.666Z,101621.81
2023-01-29T05:28:06.534Z,101615.97
2023-01-29T05:29:08.231Z,101608.59
2023-01-29T05:30:11.809Z,101628.19
2023-01-29T05:31:14.748Z,101617.94
2023-01-29T05:32:16.715Z,101621.25
2023-01-29T05:33:21.535Z,101600.44
2023-01-29T05:34:23.904Z,101592.09
2023-01-29T05:35:28.709Z,101590.59
2023-01-29T05:36:30.776Z,101601.94
2023-01-29T05:37:34.353Z,101607.47
2023-01-29T05:38:35.989Z,101618.84
2023-01-29T05:39:38.572Z,101606.81
2023-01-29T05:40:41.792Z,101586.75
2023-01-29T05:41:43.911Z,101579.41
2023-01-29T05:42:48.110Z,101603.91
2023-01-29T05:43:49.743Z,101595.88
2023-01-29T05:44:52.719Z,101570.06
2023-01-29T05:45:55.423Z,101612.00
2023-01-29T05:46:58.062Z,101612.78
2023-01-29T05:48:00.234Z,101606.13
2023-01-29T05:49:02.767Z,101611.81
2023-01-29T05:50:05.908Z,101597.59
2023-01-29T05:51:09.791Z,101594.63
2023-01-29T05:52:11.411Z,101606.13
2023-01-29T05:53:14.053Z,101567.38
2023-01-29T05:54:15.767Z,101565.69
2023-01-29T05:55:18.291Z,101579.41
2023-01-29T05:56:20.039Z,101596.41
2023-01-29T05:57:22.978Z,101570.47
2023-01-29T05:58:24.649Z,101596.50
2023-01-29T05:59:28.023Z,101590.38
2023-01-29T06:00:30.674Z,101597.91
2023-01-29T06:01:32.456Z,101565.53
2023-01-29T06:02:35.376Z,101599.25
2023-01-29T06:03:37.331Z,101594.78
2023-01-29T06:04:39.912Z,101601.47
2023-01-29T06:05:41.466Z,101588.41
2023-01-29T06:06:45.435Z,101585.41
2023-01-29T06:07:47.360Z,101604.78
2023-01-29T06:08:50.073Z,101606.44
2023-01-29T06:09:51.959Z,101597.44
2023-01-29T06:10:54.992Z,101593.22
2023-01-29T06:11:56.747Z,101598.78
2023-01-29T06:12:59.381Z,101603.41
2023-01-29T06:14:00.991Z,101601.47
2023-01-29T06:15:04.054Z,101581.03
2023-01-29T06:16:06.566Z,101591.06
2023-01-29T06:17:09.137Z,101608.25
2023-01-29T06:18:10.936Z,101603.78
2023-01-29T06:19:13.854Z,101575.72
2023-01-29T06:20:15.774Z,101597.09
2023-01-29T06:21:20.139Z,101601.75
2023-01-29T06:22:23.521Z,101614.47
2023-01-29T06:23:26.114Z,101611.47
2023-01-29T06:24:27.734Z,101619.16
2023-01-29T06:25:30.340Z,101595.91
2023-01-29T06:26:31.938Z,101604.13
2023-01-29T06:27:34.491Z,101613.13
2023-01-29T06:28:36.177Z,101613.63
2023-01-29T06:29:38.886Z,101617.91
2023-01-29T06:30:40.489Z,101626.38
2023-01-29T06:31:43.156Z,101607.25
2023-01-29T06:32:44.845Z,101629.50
2023-01-29T06:33:47.818Z,101636.97
2023-01-29T06:34:49.870Z,101633.63
2023-01-29T06:35:57.661Z,101633.44
2023-01-29T06:36:59.512Z,101603.91
2023-01-29T06:38:03.536Z,101601.59
2023-01-29T06:39:05.232Z,101644.66
2023-01-29T06:40:09.231Z,101633.41
2023-01-29T06:41:12.573Z,101634.63
2023-01-29T06:42:15.306Z,101615.09
2023-01-29T06:43:17.848Z,101622.47
2023-01-29T06:44:20.571Z,101630.84
2023-01-29T06:45:22.550Z,101641.84
2023-01-29T06:46:25.211Z,101652.09
2023-01-29T06:47:27.580Z,101656.94
2023-01-29T06:48:30.266Z,101665.78
2023-01-29T06:49:32.001Z,101659.75
2023-01-29T06:50:34.594Z,101671.97
2023-01-29T06:51:36.389Z,101647.88
2023-01-29T06:52:39.069Z,101674.28
2023-01-29T06:53:43.999Z,101655.91
2023-01-29T06:54:48.007Z,101678.31
2023-01-29T06:55:53.079Z,101681.81
2023-01-29T06:56:56.336Z,101677.97
2023-01-29T06:57:58.007Z,101642.06
2023-01-29T06:59:01.228Z,101646.22
2023-01-29T07:00:03.311Z,101671.97
2023-01-29T07:01:07.040Z,101673.94
2023-01-29T07:02:09.529Z,101668.59
2023-01-29T07:03:12.257Z,101696.38
2023-01-29T07:04:14.775Z,101657.41
2023-01-29T07:05:16.369Z,101684.63
2023-01-29T07:06:18.987Z,101675.38
2023-01-29T07:07:20.732Z,101661.19
2023-01-29T07:08:23.474Z,101696.00
2023-01-29T07:09:26.647Z,101695.53
2023-01-29T07:10:29.346Z,101689.50
2023-01-29T07:11:31.258Z,101699.72
2023-01-29T07:12:34.080Z,101700.03
2023-01-29T07:13:37.403Z,101701.22
2023-01-29T07:14:38.988Z,101682.34
2023-01-29T07:15:41.752Z,101704.88
2023-01-29T07:16:44.327Z,101674.44
2023-01-29T07:17:57.554Z,101695.84
2023-01-29T07:18:59.416Z,101694.63
2023-01-29T07:20:01.882Z,101706.97
2023-01-29T07:21:06.402Z,101713.69
2023-01-29T07:22:08.944Z,101683.91
2023-01-29T07:23:12.666Z,101697.75
2023-01-29T07:24:16.479Z,101706.03
2023-01-29T07:25:19.610Z,101708.63
2023-01-29T07:26:22.522Z,101699.00
2023-01-29T07:27:24.482Z,101714.91
2023-01-29T07:28:27.333Z,101715.56
2023-01-29T07:29:28.935Z,101733.31
2023-01-29T07:30:31.766Z,101722.47
2023-01-29T07:31:33.760Z,101731.47
2023-01-29T07:32:36.558Z,101713.09
2023-01-29T07:33:39.217Z,101703.38
2023-01-29T07:34:40.826Z,101691.19
2023-01-29T07:35:44.535Z,101699.38
2023-01-29T07:36:46.142Z,101716.09
2023-01-29T07:37:50.239Z,101719.41
2023-01-29T07:38:52.003Z,101703.22
2023-01-29T07:39:54.490Z,101705.06
2023-01-29T07:40:59.779Z,101706.41
2023-01-29T07:42:02.763Z,101702.41
2023-01-29T07:43:07.933Z,101706.72
2023-01-29T07:44:09.666Z,101703.72
2023-01-29T07:45:12.907Z,101689.69
2023-01-29T07:46:14.575Z,101689.69
2023-01-29T07:47:17.391Z,101680.13
2023-01-29T07:48:19.204Z,101682.81
2023-01-29T07:49:21.915Z,101661.25
2023-01-29T07:50:24.415Z,101669.94
2023-01-29T07:51:27.143Z,101696.84
2023-01-29T07:52:30.179Z,101677.31
2023-01-29T07:53:33.123Z,101693.34
2023-01-29T07:54:34.661Z,101652.69
2023-01-29T07:55:37.164Z,101681.13
2023-01-29T07:56:40.208Z,101673.06
2023-01-29T07:57:42.689Z,101664.59
2023-01-29T07:58:45.417Z,101662.72
2023-01-29T07:59:47.033Z,101639.03
2023-01-29T08:00:49.741Z,101652.91
2023-01-29T08:01:52.427Z,101664.75
2023-01-29T08:02:54.142Z,101665.13
2023-01-29T08:03:57.472Z,101651.88
2023-01-29T08:05:00.007Z,101639.19
2023-01-29T08:06:01.711Z,101657.09
2023-01-29T08:07:04.847Z,101653.41
2023-01-29T08:08:07.815Z,101623.66
2023-01-29T08:09:11.667Z,101638.53
2023-01-29T08:10:13.390Z,101620.16
2023-01-29T08:11:16.523Z,101582.75
2023-01-29T08:12:19.513Z,101604.28
2023-01-29T08:13:22.312Z,101613.50
2023-01-29T08:14:24.018Z,101618.63
2023-01-29T08:15:26.897Z,101620.31
2023-01-29T08:16:29.466Z,101589.06
2023-01-29T08:17:31.117Z,101609.34
2023-01-29T08:18:33.782Z,101609.84
2023-01-29T08:19:35.553Z,101612.84
2023-01-29T08:20:38.379Z,101599.19
2023-01-29T08:21:40.031Z,101610.69
2023-01-29T08:22:42.859Z,101608.00
2023-01-29T08:23:44.467Z,101602.81
2023-01-29T08:24:59.915Z,101616.91
2023-01-29T08:26:03.648Z,101611.78
2023-01-29T08:27:05.219Z,101585.41
2023-01-29T08:28:09.809Z,101610.28
2023-01-29T08:29:11.443Z,101621.56
2023-01-29T08:30:14.916Z,101605.59
2023-01-29T08:31:17.655Z,101578.97
2023-01-29T08:32:20.308Z,101615.53
2023-01-29T08:34:45.737Z,101616.13
2023-01-29T08:35:49.348Z,101622.63
2023-01-29T08:36:52.270Z,101634.91
2023-01-29T08:37:54.966Z,101617.72
2023-01-29T08:38:57.699Z,101603.72
2023-01-29T08:40:00.451Z,101598.66
2023-01-29T08:41:02.115Z,101627.69
2023-01-29T08:42:04.820Z,101640.66
2023-01-29T08:43:10.206Z,101615.28
2023-01-29T08:44:13.033Z,101639.84
2023-01-29T08:45:14.835Z,101643.66
2023-01-29T08:46:17.316Z,101651.41
2023-01-29T08:47:19.004Z,101661.56
2023-01-29T08:48:21.526Z,101655.06
2023-01-29T08:49:23.191Z,101628.47
2023-01-29T08:50:25.913Z,101631.28
2023-01-29T08:51:30.120Z,101618.56
2023-01-29T08:52:33.389Z,101663.59
2023-01-29T08:53:36.172Z,101649.59
2023-01-29T08:54:37.665Z,101685.81
2023-01-29T08:55:41.959Z,101658.00
2023-01-29T08:56:45.349Z,101658.88
2023-01-29T08:57:47.412Z,101654.56
2023-01-29T08:58:51.351Z,101693.47
2023-01-29T08:59:52.984Z,101688.09
2023-01-29T09:00:55.626Z,101669.72
2023-01-29T09:01:57.191Z,101660.00
2023-01-29T09:03:01.041Z,101663.09
2023-01-29T09:04:02.884Z,101653.88
2023-01-29T09:05:06.550Z,101641.09
2023-01-29T09:06:10.059Z,101652.88
2023-01-29T09:07:13.191Z,101658.22
2023-01-29T09:08:15.914Z,101643.59
2023-01-29T09:09:19.199Z,101651.16
2023-01-29T09:10:20.918Z,101661.53
2023-01-29T09:11:23.820Z,101647.69
2023-01-29T09:12:25.748Z,101653.53
2023-01-29T09:13:28.407Z,101633.25
2023-01-29T09:14:32.984Z,101650.91
2023-01-29T09:15:34.769Z,101644.13
2023-01-29T09:16:37.363Z,101639.31
2023-01-29T09:17:39.117Z,101678.59
2023-01-29T09:18:42.135Z,101666.41
2023-01-29T09:19:43.903Z,101670.59
2023-01-29T09:20:46.473Z,101645.72
2023-01-29T09:21:50.264Z,101654.56
2023-01-29T09:22:53.806Z,101633.03
2023-01-29T09:23:55.661Z,101628.84
2023-01-29T09:24:58.471Z,101649.44
2023-01-29T09:26:01.637Z,101660.00
2023-01-29T09:27:03.940Z,101638.34
2023-01-29T09:28:07.156Z,101633.69
2023-01-29T09:29:11.546Z,101613.28
2023-01-29T09:30:15.236Z,101613.38
2023-01-29T09:31:18.328Z,101631.72
2023-01-29T09:32:49.800Z,101652.31
2023-01-29T09:33:43.059Z,101647.00
2023-01-29T09:34:44.856Z,101610.28
2023-01-29T09:35:47.874Z,101600.38
2023-01-29T09:36:49.488Z,101601.06
2023-01-29T09:37:52.850Z,101609.69
2023-01-29T09:38:55.602Z,101585.56
2023-01-29T09:39:57.101Z,101583.16
2023-01-29T09:41:09.690Z,101614.72
2023-01-29T09:42:19.587Z,101592.06
2023-01-29T09:43:27.204Z,101595.19
2023-01-29T09:44:49.876Z,101621.13
2023-01-29T09:45:58.379Z,101614.13
2023-01-29T09:47:05.139Z,101604.81
2023-01-29T09:48:13.632Z,101625.88
2023-01-29T09:49:22.065Z,101603.66
2023-01-29T09:50:30.075Z,101613.03
2023-01-29T09:51:37.828Z,101623.63
2023-01-29T09:52:46.122Z,101588.25
2023-01-29T09:53:58.504Z,101621.38
2023-01-29T09:55:06.031Z,101620.66
2023-01-29T09:56:13.760Z,101579.16
2023-01-29T09:57:21.569Z,101590.59
2023-01-29T09:58:29.793Z,101605.53
2023-01-29T09:59:33.463Z,101583.31
2023-01-29T10:00:39.498Z,101600.88
2023-01-29T10:01:53.985Z,101609.91
2023-01-29T10:03:13.178Z,101605.47
2023-01-29T10:04:36.614Z,101571.84
2023-01-29T10:05:55.018Z,101586.84
2023-01-29T10:07:16.259Z,101566.69
2023-01-29T10:08:33.046Z,101600.84
2023-01-29T10:09:49.120Z,101601.03
2023-01-29T10:10:52.373Z,101583.38
2023-01-29T10:12:01.789Z,101595.00
2023-01-29T10:13:15.732Z,101574.69
2023-01-29T10:14:30.871Z,101572.47
2023-01-29T10:15:48.576Z,101582.53
2023-01-29T10:17:04.174Z,101577.94
2023-01-29T10:18:26.790Z,101563.69
2023-01-29T10:19:57.370Z,101571.44
2023-01-29T10:21:12.291Z,101590.03
2023-01-29T10:22:44.008Z,101578.00
2023-01-29T10:23:51.288Z,101554.66
2023-01-29T10:24:58.573Z,101535.13
2023-01-29T10:26:01.905Z,101568.94
2023-01-29T10:27:12.854Z,101569.59
2023-01-29T10:28:18.781Z,101572.00
2023-01-29T10:29:22.067Z,101552.63
2023-01-29T10:30:32.865Z,101550.09
2023-01-29T10:31:40.044Z,101539.00
2023-01-29T10:32:43.426Z,101565.41
2023-01-29T10:34:02.172Z,101555.66
2023-01-29T10:35:25.670Z,101526.94
2023-01-29T10:36:35.183Z,101559.38
2023-01-29T10:37:39.717Z,101547.63
2023-01-29T10:38:46.269Z,101502.66
2023-01-29T10:39:48.949Z,101552.81
2023-01-29T10:40:59.765Z,101523.47
2023-01-29T10:42:08.173Z,101547.53
2023-01-29T10:43:19.530Z,101534.22
2023-01-29T10:44:34.181Z,101515.34
2023-01-29T10:45:46.403Z,101523.38
2023-01-29T10:47:03.577Z,101537.97
2023-01-29T10:48:31.195Z,101547.59
2023-01-29T10:49:59.588Z,101520.81
2023-01-29T10:51:14.519Z,101503.50
2023-01-29T10:52:32.669Z,101527.69
2023-01-29T10:53:46.898Z,101519.91
2023-01-29T10:55:04.111Z,101501.75
2023-01-29T10:56:23.217Z,101522.03
2023-01-29T10:57:41.636Z,101501.06
2023-01-29T10:58:49.607Z,101512.16
2023-01-29T11:00:05.325Z,101504.28
2023-01-29T11:01:09.306Z,101523.22
2023-01-29T11:02:18.275Z,101503.19
2023-01-29T11:03:28.292Z,101503.03
2023-01-29T11:04:32.714Z,101497.59
2023-01-29T11:05:42.266Z,101497.22
2023-01-29T11:06:45.666Z,101486.00
2023-01-29T11:07:49.678Z,101487.88
2023-01-29T11:08:57.371Z,101504.63
2023-01-29T11:10:06.359Z,101507.56
2023-01-29T11:11:11.184Z,101517.41
2023-01-29T11:12:15.483Z,101524.72
2023-01-29T11:13:19.154Z,101505.72
2023-01-29T11:14:26.127Z,101505.88
2023-01-29T11:15:36.237Z,101502.56
2023-01-29T11:16:43.480Z,101461.81
2023-01-29T11:18:05.303Z,101493.00
2023-01-29T11:19:08.470Z,101497.34
2023-01-29T11:21:58.185Z,101482.31
2023-01-29T11:23:01.106Z,101488.75
2023-01-29T11:24:12.863Z,101484.66
2023-01-29T11:25:18.690Z,101473.53
2023-01-29T11:26:23.976Z,101484.31
2023-01-29T11:27:29.726Z,101486.41
2023-01-29T11:28:40.019Z,101460.41
2023-01-29T11:29:49.153Z,101435.19
2023-01-29T11:30:51.433Z,101471.03
2023-01-29T11:31:54.696Z,101475.78
2023-01-29T11:33:09.213Z,101453.91
2023-01-29T11:34:20.798Z,101444.00
2023-01-29T11:35:25.943Z,101469.72
2023-01-29T11:36:37.134Z,101496.13
2023-01-29T11:37:41.552Z,101472.78
2023-01-29T11:38:43.447Z,101461.38
2023-01-29T11:39:49.143Z,101459.97
2023-01-29T11:40:52.718Z,101476.31
2023-01-29T11:41:59.028Z,101456.03
2023-01-29T11:43:13.149Z,101466.72
2023-01-29T11:44:20.620Z,101460.50
2023-01-29T11:45:27.516Z,101446.91
2023-01-29T11:46:29.510Z,101443.16
2023-01-29T11:47:33.855Z,101469.66
2023-01-29T11:48:44.773Z,101451.22
2023-01-29T11:49:49.841Z,101450.34
2023-01-29T11:50:55.146Z,101435.63
2023-01-29T11:52:02.070Z,101434.94
2023-01-29T11:53:07.027Z,101443.56
2023-01-29T11:54:20.764Z,101444.25
2023-01-29T11:55:25.670Z,101440.56
2023-01-29T11:56:30.164Z,101419.13
2023-01-29T11:57:35.586Z,101447.31
2023-01-29T11:58:37.319Z,101424.66
2023-01-29T11:59:48.676Z,101423.72
2023-01-29T12:00:55.377Z,101430.97
2023-01-29T12:02:07.186Z,101434.91
2023-01-29T12:03:17.476Z,101427.84
2023-01-29T12:04:23.353Z,101419.38
2023-01-29T12:05:28.582Z,101404.06
2023-01-29T12:06:35.999Z,101425.53
2023-01-29T12:07:43.000Z,101424.13
2023-01-29T12:08:44.748Z,101420.56
2023-01-29T12:09:54.041Z,101405.72
2023-01-29T12:11:09.479Z,101383.13
2023-01-29T12:12:28.659Z,101381.34
2023-01-29T12:13:31.408Z,101398.31
2023-01-29T12:14:34.475Z,101401.22
2023-01-29T12:15:37.600Z,101403.19
2023-01-29T12:16:48.773Z,101390.63
2023-01-29T12:18:08.480Z,101404.00
2023-01-29T12:19:14.146Z,101381.06
2023-01-29T12:20:21.385Z,101397.50
2023-01-29T12:21:36.807Z,101390.44
2023-01-29T12:22:45.361Z,101396.59
2023-01-29T12:23:55.387Z,101389.94
2023-01-29T12:25:00.007Z,101377.66
2023-01-29T12:26:07.912Z,101388.06
2023-01-29T12:27:18.061Z,101367.41
2023-01-29T12:28:32.763Z,101354.41
2023-01-29T12:29:43.862Z,101360.47
2023-01-29T12:30:56.522Z,101346.38
2023-01-29T12:32:08.152Z,101338.72
2023-01-29T12:33:17.938Z,101359.28
2023-01-29T12:34:27.662Z,101332.69
2023-01-29T12:35:34.257Z,101348.84
2023-01-29T12:36:43.035Z,101366.50
2023-01-29T12:37:55.297Z,101325.63
2023-01-29T12:38:58.901Z,101345.66
2023-01-29T12:40:02.838Z,101318.13
2023-01-29T12:41:09.548Z,101354.44
2023-01-29T12:42:17.723Z,101363.59
2023-01-29T12:43:27.626Z,101359.25
2023-01-29T12:44:37.033Z,101351.19